Calliham, Texas
Current Conditions -  °F | °C
As of 2:58 AM on Wednesday 26 Nov 2014 (Local Time) from KNMT Reporting Station
Clear Clear  
Wind Chill: 37°   Ceiling: Unl
Heat Index: 37°   Visibility: NA
Dew Point: 30°   Wind: 3mph
Humidity: 76%   Direction: NA
Pressure: 30.2"   Gusts: NA
Location:  28.48°N, 98.35°W
Report Text: KNMT 260858Z AUTO VRB03KT CLR 03/M01 A3020 RMK AO2 SLP109 6//// T00281011 58005 PNO $
Loading
Personal Weather Stations






























Interactive Weather Map New forecast layout! Learn more

10-Day Weather Forecast

Advertisements
Track Severe Weather on mobile